x

Ilm2 - 5 Miles Se Of Wrightsville Beach, Nc (41038) Weather Station

3:08 - Tue 4th Aug 2015 All times are EDT. -4 hours from GMT.

  • Wind
    22mph, 29mph gusts
  • Sea Temp 82°f
  • Air Temp 80°f
  • Sea Pressure 1014mb
  • Ilm2 - 5 Miles Se Of Wrightsville Beach, Nc
  • Ilm2 - 5 Miles Se Of Wrightsville Beach, Nc

More Historic Weather Station data

Upgrade to MSW Pro to gain access to the past 30 days of data for over 8000 Wavebouys and Weather Stations around the globe.

Join Pro

Comparision Forecast

View Surf forecast
   
mar. 08/04 3:08 22 29 mph 1014mb 82f 80f
2:53 27 36 mph 1013.8mb 82f 79f
2:38 25 36 mph 1014.2mb 82f 79f
2:23 27 34 mph 1014.2mb 82f 78f
2:08 27 34 mph 1014.1mb 82f 78f
1:53 25 34 mph 1014.6mb 82f 78f
1:38 27 36 mph 1014.7mb 82f 79f
1:23 25 29 mph 1014.9mb 82f 79f
1:08 20 25 mph 1015.1mb 82f 80f
12:53 20 27 mph 1014.9mb 82f 80f
12:38 20 27 mph 1014.9mb 82f 80f
12:23 22 27 mph 1015mb 82f 80f
12:08 25 34 mph 1015.3mb 82f 80f
11:53 20 27 mph 1015.6mb 82f 80f
11:38 22 27 mph 1015.7mb 82f 81f
11:23 22 31 mph 1015.5mb 82f 81f
11:08 22 29 mph 1015.7mb 82f 81f
10:53 22 29 mph 1015.2mb 82f 81f
10:38 27 36 mph 1014.8mb 82f 82f
10:23 29 36 mph 1014.1mb 82f 82f
10:08 25 31 mph 1014.5mb 82f 82f
9:53 25 34 mph 1014.7mb 82f 82f
9:38 25 31 mph 1014.8mb 82f 82f
9:23 25 36 mph 1015.3mb 82f 82f
9:08 22 31 mph 1015.3mb 82f 82f
8:53 22 31 mph 1014.9mb 82f 81f
8:38 18 27 mph 1015.3mb 82f 81f
8:23 18 25 mph 1014.7mb 82f 81f
8:08 18 22 mph 1014.8mb 82f 81f
7:53 18 27 mph 1015mb 82f 82f
7:38 16 25 mph 1015.3mb 82f 81f
7:23 16 20 mph 1015.3mb 82f 81f
7:08 16 22 mph 1015.2mb 82f 82f
6:53 18 22 mph 1015.4mb 82f 82f
6:38 20 25 mph 1014.8mb 82f 82f
6:23 20 25 mph 1015.2mb 82f 82f
6:08 20 25 mph 1014.8mb 82f 82f
5:53 16 22 mph 1014.6mb 82f 82f
5:38 18 22 mph 1014.2mb 82f 82f
5:23 20 25 mph 1014.6mb 82f 82f
5:08 20 27 mph 1014.1mb 82f 82f
4:53 18 25 mph 1014.1mb 82f 82f
4:38 18 22 mph 1014.4mb 82f 82f
4:23 18 25 mph 1014.4mb 82f 82f
4:08 18 25 mph 1014.6mb 82f 82f
3:53 16 25 mph 1014.7mb 82f 82f
3:38 16 22 mph 1014.7mb 82f 82f
3:23 16 20 mph 1014.6mb 82f 82f
3:08 13 20 mph 1014.1mb 82f 82f
2:53 16 20 mph 1014.2mb 82f 82f
2:38 16 20 mph 1014.6mb 82f 82f
2:23 16 20 mph 1014.8mb 82f 82f
2:08 16 20 mph 1014.8mb 82f 82f
1:53 13 18 mph 1014.9mb 82f 82f
1:38 13 20 mph 1015.1mb 82f 82f
1:23 16 20 mph 1015.2mb 82f 82f
1:08 16 22 mph 1015.1mb 82f 82f
12:53 16 20 mph 1015mb 82f 82f
12:38 16 20 mph 1015.2mb 82f 82f
12:23 13 18 mph 1015.2mb 82f 82f
12:08 13 18 mph 1015.3mb - 82f
lun. 08/03 11:53 11 16 mph 1015.3mb 82f 82f
11:38 11 16 mph 1015.3mb 82f 82f
11:23 11 16 mph 1015.1mb 82f 82f
11:08 9 13 mph 1015.1mb 82f 82f
10:53 11 16 mph 1015.1mb 82f 82f
10:38 13 16 mph 1015mb 82f 82f
10:23 13 18 mph 1014.9mb 82f 82f
10:08 13 18 mph 1014.9mb 82f 82f
9:53 13 18 mph 1014.8mb 82f 82f
9:38 11 16 mph 1014.6mb 82f 82f
9:23 11 16 mph 1014.4mb 82f 82f
9:08 13 16 mph 1014.1mb 82f 82f
8:53 13 18 mph 1013.9mb 82f 82f
8:38 13 18 mph 1013.8mb 82f 82f
8:23 16 20 mph 1013.7mb 82f 81f
8:08 13 18 mph 1013.6mb 82f 81f
7:53 13 18 mph 1013.9mb 82f 81f
7:38 16 20 mph 1014.1mb 82f 81f
7:23 16 20 mph 1014.1mb 82f 81f
7:08 16 18 mph 1014.1mb 83f 81f
6:53 16 20 mph 1013.8mb 83f 81f
6:38 16 22 mph 1013.9mb 83f 81f
6:23 16 20 mph 1013.9mb 83f 81f
6:08 16 22 mph 1014mb 83f 81f
5:53 9 13 mph 1014.3mb 83f 80f
5:38 7 9 mph 1014.5mb 83f 80f
5:23 4 7 mph 1014.6mb 83f 79f
5:08 4 9 mph 1014.7mb 82f 79f
4:08 9 11 mph 1015.4mb 82f 80f
3:53 7 11 mph 1015.3mb 82f 80f
3:38 11 16 mph 1015.3mb 82f 80f
3:23 13 18 mph 1015.5mb 83f 80f
3:08 13 18 mph 1015.3mb 83f 80f
2:53 13 18 mph 1015.2mb 82f 80f
2:23 20 27 mph 1014.7mb 82f 81f
2:08 18 25 mph 1014.8mb 82f 81f
1:53 20 25 mph 1014.6mb - 80f
12:53 22 29 mph 1014.1mb 83f 80f
11:53 20 25 mph 1014.4mb 83f 81f
10:53 16 20 mph 1014.4mb 82f 82f
10:08 11 13 mph 1014.1mb 82f 81f
9:53 9 13 mph 1014mb 82f 81f
9:38 4 7 mph 1013.9mb 82f 79f
9:23 7 13 mph 1013.9mb 82f 77f
9:08 11 20 mph 1013.4mb 82f 77f
8:53 4 11 mph 1013mb 82f 77f
8:38 25 36 mph 1013.9mb 82f 79f
8:23 20 31 mph 1013.6mb 82f 79f
8:08 20 34 mph 1013.6mb 82f 78f
7:53 7 13 mph 1013.8mb 82f 80f
7:38 2 7 mph 1013.9mb 82f 79f
7:23 2 7 mph 1013.9mb 82f 79f
7:08 2 7 mph 1014mb 82f 78f
6:53 4 9 mph 1013.9mb 82f 78f
6:38 7 9 mph 1013.7mb 82f 78f
6:23 9 11 mph 1013.6mb 82f 78f
6:08 9 13 mph 1013.4mb 82f 78f
5:53 11 16 mph 1013.5mb 83f 78f
5:08 16 20 mph 1012.9mb 83f 81f
4:53 13 18 mph 1012.8mb 83f 80f
4:38 13 18 mph 1012.7mb 83f 79f
4:23 18 25 mph 1013.1mb 83f 77f
4:08 27 36 mph 1013mb 83f 78f
3:53 27 31 mph 1012.9mb 83f 79f
3:38 29 38 mph 1012.8mb 83f 80f
3:23 25 43 mph 1012.7mb 83f 78f
3:08 16 29 mph 1013.2mb 83f 75f
2:53 20 27 mph 1013.6mb 83f 76f
2:38 22 29 mph 1013.9mb 83f 76f
2:23 27 34 mph 1013.5mb 83f 76f
2:08 27 34 mph 1013.4mb 83f 76f
1:53 18 25 mph 1013.6mb 83f 78f
1:38 25 29 mph 1013.4mb 83f 76f
1:23 25 34 mph 1013.8mb 83f 77f
1:08 25 31 mph 1013.5mb 83f 78f
12:53 20 27 mph 1013.7mb 83f 79f
12:38 20 29 mph 1013.6mb 83f 80f
12:23 22 27 mph 1013.6mb 83f 79f
12:08 22 27 mph 1013.6mb 83f 80f
dim. 08/02 11:53 22 29 mph 1013.9mb 83f 80f
11:38 22 27 mph 1014mb 83f 81f
11:23 22 29 mph 1013.8mb 83f 81f
11:08 18 25 mph 1013.7mb 83f 82f
10:53 18 25 mph 1013.6mb 83f 82f
10:38 18 25 mph 1013.7mb 83f 81f
10:23 18 25 mph 1013.6mb 83f 81f
10:08 18 22 mph 1013.4mb 83f 82f
9:53 16 22 mph 1013.4mb 83f 81f
9:38 13 20 mph 1013.4mb 83f 81f
9:23 13 18 mph 1013.7mb 83f 81f
9:08 16 20 mph 1013.7mb 83f 81f
8:53 13 18 mph 1013.7mb 84f 81f
8:38 13 18 mph 1013.7mb 84f 81f
8:23 13 16 mph 1013.8mb 84f 81f
8:08 11 16 mph 1013.9mb 84f 81f
7:53 13 16 mph 1013.9mb 84f 81f
7:38 16 20 mph 1013.8mb 84f 81f
7:23 16 20 mph 1013.8mb 84f 81f
7:08 16 22 mph 1013.7mb 84f 81f
6:53 16 22 mph 1013.8mb 84f 81f
6:38 18 22 mph 1014mb 84f 82f
6:23 16 22 mph 1014.1mb 84f 82f
6:08 18 22 mph 1014.2mb 84f 82f
5:53 18 25 mph 1014.1mb 84f 82f
5:38 18 25 mph 1014.1mb 84f 82f
5:23 18 22 mph 1014.1mb 84f 82f
5:08 18 25 mph 1013.9mb 84f 82f
4:53 18 22 mph 1014mb 84f 82f
4:38 16 22 mph 1014.2mb 84f 82f
4:23 18 22 mph 1014.2mb 84f 83f
4:08 18 22 mph 1014.1mb 84f 83f
3:53 18 22 mph 1013.9mb 84f 83f
3:38 16 20 mph 1013.9mb 84f 83f
3:23 16 22 mph 1014mb 84f 83f
3:08 16 20 mph 1014.1mb 84f 83f
2:53 13 18 mph 1014mb 84f 83f
2:38 16 20 mph 1014.1mb 84f 83f
2:23 16 20 mph 1014mb 84f 83f
2:08 16 20 mph 1014.3mb 84f 83f
1:53 13 16 mph 1014.2mb 84f 83f
1:38 11 16 mph 1014.2mb 84f 82f
1:23 13 16 mph 1014.2mb 85f 82f
1:08 11 16 mph 1014.2mb 85f 82f
12:53 11 16 mph 1014.2mb 84f 82f
12:38 7 9 mph 1014.3mb 84f 82f
12:23 7 9 mph 1014.4mb 84f 82f
12:08 4 9 mph 1014.6mb 83f 82f
11:53 4 7 mph 1014.6mb 83f 82f
11:38 2 7 mph 1014.4mb 83f 82f
11:23 2 7 mph 1014.3mb 83f 82f
11:08 2 4 mph 1014.3mb 83f 83f
10:53 2
mph
1014.1mb 83f 82f
10:38 2 4 mph 1014.2mb 83f 83f
10:23 2
mph
1014.1mb 83f 83f
10:08 2 4 mph 1014.1mb 83f 83f
9:53 2 4 mph 1014.1mb 83f 82f
9:38 7 11 mph 1014mb 83f 80f
9:23 9 11 mph 1013.8mb 83f 80f
9:08 7 11 mph 1013.6mb 83f 81f
8:53 7 11 mph 1013.6mb 83f 80f
8:38 7 9 mph 1013.6mb 83f 80f
8:23 7 9 mph 1013.5mb 83f 80f
8:08 9 11 mph 1013.4mb 83f 80f
7:53 7 11 mph 1013.3mb 83f 80f
7:38 7 9 mph 1013.3mb 83f 80f
7:08 9 11 mph 1013.2mb 83f 80f
6:53 11 16 mph 1013mb 83f 79f
6:08 7 11 mph 1012.9mb 83f 80f
5:53 7 9 mph 1012.7mb 83f 80f
5:38 7 9 mph 1012.7mb 83f 80f
5:23 7 9 mph 1012.8mb 83f 80f
5:08 7 9 mph 1012.7mb 83f 80f
4:53 7 9 mph 1012.7mb 83f 80f
4:38 7 9 mph 1012.7mb 83f 80f
4:23 7 9 mph 1012.7mb 83f 80f
4:08 7 9 mph 1012.5mb 83f 80f
3:53 7 9 mph 1012.5mb 83f 80f
3:38 7 9 mph 1012.5mb 83f 80f
3:23 9 11 mph 1012.6mb 83f 80f
3:08 9 11 mph 1012.7mb 83f 80f
2:53 11 16 mph 1012.8mb 83f 80f
2:38 9 13 mph 1012.9mb 83f 80f
2:23 11 13 mph 1013mb 83f 80f
2:08 11 16 mph 1013.1mb 83f 81f
1:53 11 16 mph 1012.9mb 83f 81f
1:38 13 16 mph 1012.9mb 83f 81f
1:23 13 18 mph 1012.9mb 83f 81f
1:08 13 18 mph 1013.1mb 83f 81f
12:53 13 18 mph 1013mb 83f 81f
12:38 16 18 mph 1013.1mb 83f 81f
12:23 16 20 mph 1013.2mb 83f 81f
12:08 16 20 mph 1013mb 83f 81f
sam. 08/01 11:53 16 20 mph 1013mb 83f 81f
11:38 16 20 mph 1013mb 83f 81f
11:23 16 20 mph 1013.1mb 83f 81f
11:08 16 22 mph 1013.1mb 83f 81f
10:53 16 20 mph 1013.1mb 83f 82f
10:38 16 22 mph 1013.1mb 83f 82f
10:23 16 20 mph 1013mb 83f 82f
10:08 16 20 mph 1012.9mb 83f 82f
9:53 16 18 mph 1013mb 83f 82f
9:38 16 20 mph 1012.7mb 83f 82f
9:23 16 20 mph 1012.5mb 83f 82f
9:08 16 20 mph 1012.3mb 83f 82f
8:53 16 20 mph 1012.2mb 83f 82f
8:38 16 20 mph 1012.2mb 83f 81f
8:23 16 20 mph 1012.1mb 83f 82f
8:08 16 20 mph 1012mb 83f 81f
7:53 13 20 mph 1011.8mb 83f 82f
7:38 16 20 mph 1011.8mb 83f 82f
7:23 16 22 mph 1011.8mb 83f 82f
7:08 20 25 mph 1012mb 83f 82f
6:53 20 25 mph 1011.8mb 83f 82f
6:38 20 25 mph 1011.7mb 83f 82f
6:23 18 25 mph 1011.7mb 83f 82f
6:08 18 25 mph 1011.6mb 83f 82f
5:53 20 25 mph 1011.5mb 83f 82f
5:38 18 22 mph 1011.8mb 83f 82f
5:23 18 22 mph 1011.9mb 83f 82f
5:08 18 27 mph 1011.9mb 83f 82f
4:53 16 20 mph 1012mb 83f 82f
4:38 18 22 mph 1011.8mb 83f 82f
4:23 18 25 mph 1012.1mb 83f 82f
4:08 18 25 mph 1012.1mb 83f 82f
3:53 18 25 mph 1012.4mb 83f 82f
3:08 18 22 mph 1012.7mb 83f 82f
2:53 16 20 mph 1012.8mb 83f 82f
2:38 16 18 mph 1012.8mb 83f 82f
2:23 13 18 mph 1012.8mb 83f 82f
2:08 13 16 mph 1013mb 83f 82f
1:53 11 16 mph 1013.3mb 83f 82f
1:38 11 16 mph 1013.5mb 83f 81f
1:23 11 16 mph 1013.6mb 83f 81f
1:08 9 13 mph 1013.7mb 83f 82f
12:53 9 11 mph 1013.8mb 83f 82f
12:38 9 11 mph 1013.8mb 83f 82f
12:23 7 11 mph 1014mb 83f 82f
12:08 7 11 mph 1014mb 83f 81f
11:53 4 9 mph 1014.2mb 83f 81f
11:38 4 7 mph 1014.3mb 83f 82f
11:23 4 7 mph 1014.3mb 83f 82f
11:08 7 9 mph 1014mb 83f 81f
10:53 7 9 mph 1013.9mb 83f 81f
10:38 4 9 mph 1014mb 83f 81f
10:23 4 7 mph 1013.8mb 83f 80f
10:08 2 7 mph 1013.7mb 83f 80f
9:53 2 7 mph 1013.6mb 83f 80f
9:38 2 4 mph 1013.5mb 83f 80f
9:23 4 7 mph 1013.4mb 83f 80f
9:08 4 7 mph 1013.5mb 83f 79f
8:53 4 9 mph 1013.3mb 83f 79f
8:38 7 11 mph 1013mb 83f 79f
8:23 7 11 mph 1013mb 83f 80f
8:08 7 9 mph 1012.8mb 83f 80f
7:53 4 7 mph 1012.6mb 83f 80f
7:38 4 9 mph 1012.6mb 83f 79f
7:23 4 9 mph 1012.8mb 83f 79f
7:08 4 9 mph 1013mb 83f 79f
6:53 4 9 mph 1012.8mb 83f 80f
6:38 7 9 mph 1012.7mb 83f 80f
6:23 4 9 mph 1012.8mb 83f 80f
6:08 7 9 mph 1012.6mb 83f 80f
5:53 7 11 mph 1012.4mb 83f 80f
5:38 7 9 mph 1012.4mb 83f 80f
5:23 7 9 mph 1012.1mb 83f 80f
5:08 7 9 mph 1011.9mb 83f 80f
4:53 7 11 mph 1012mb 83f 80f
4:38 7 9 mph 1012.3mb 83f 80f
4:23 7 9 mph 1012.6mb 83f 80f
4:08 9 11 mph 1012.3mb 83f 80f
3:53 9 13 mph 1012.1mb 83f 80f
3:38 7 9 mph 1012.1mb 83f 80f
3:23 4 9 mph 1013.1mb 83f 79f
3:08 4 9 mph 1011.7mb 83f 78f
2:53 4 9 mph 1011.5mb 83f 78f
2:38 7 13 mph 1013.2mb 83f 79f
2:23 7 18 mph 1011.9mb 83f 78f
2:08 9 13 mph 1013.1mb 83f 81f
1:53 4 11 mph 1013.3mb 83f 81f
1:38 7 9 mph 1013.4mb 83f 81f
1:23 7 13 mph 1013.5mb 83f 81f
12:53 4 7 mph 1013.5mb 83f 82f
12:08 7 9 mph 1013.2mb 83f 82f
ven. 07/31 11:53 4 9 mph 1013.3mb 83f 82f
11:38 4 9 mph 1013.3mb 83f 82f
11:23 7 11 mph 1013.2mb 83f 82f
11:08 7 11 mph 1013.4mb 83f 82f
10:53 9 13 mph 1013.6mb 83f 81f
10:38 11 16 mph 1013.5mb 83f 81f
10:23 11 16 mph 1013.3mb 83f 81f
10:08 11 13 mph 1013.4mb 83f 81f
9:53 11 13 mph 1013.5mb 83f 81f
9:38 13 16 mph 1013.4mb 83f 82f
9:23 11 13 mph 1013mb 83f 81f
9:08 9 13 mph 1012.7mb 83f 81f
8:53 11 16 mph 1012.5mb 83f 80f
8:38 11 13 mph 1012.5mb 83f 80f